This is the latest recevied weather packets stored in our database for station/object HS1IFU-13. If no packets are shown the sender has not sent any weather packets the latest 10 day(s).
| Time | Temp. | Humidity | Pressure | Rain* | Wind** | Luminosity | Snow |
|---|---|---|---|---|---|---|---|
| 1777896622 | 34.44° C | 48% | 1008 hPa | - | - | 0 W/m² | - |
| 1777896165 | 33.89° C | 49% | 1007 hPa | - | - | 0 W/m² | - |
| 1777895907 | 33.33° C | 49% | 1007 hPa | - | - | 0 W/m² | - |
| 1777895456 | 33.33° C | 50% | 1007 hPa | - | - | 0 W/m² | - |
| 1777894838 | 32.22° C | 51% | 1007 hPa | - | - | 0 W/m² | - |
| 1777894430 | 31.67° C | 52% | 1006 hPa | - | - | 0 W/m² | - |
| 1777894109 | 30.56° C | 54% | 1006 hPa | - | - | 0 W/m² | - |
| 1777892588 | 26.11° C | 37% | 1006 hPa | - | - | 0 W/m² | - |
| 1777892337 | 26.67° C | 37% | 1005 hPa | - | - | 0 W/m² | - |
| 1777891959 | 27.22° C | 38% | 1006 hPa | - | - | 0 W/m² | - |
| 1777890959 | 28.33° C | 38% | 1007 hPa | - | - | 0 W/m² | - |
| 1777890170 | 31.11° C | 38% | 1008 hPa | - | - | 0 W/m² | - |
| 1777889863 | 32.22° C | 40% | 1007 hPa | - | - | 0 W/m² | - |
| 1777889212 | 35.56° C | 47% | 1008 hPa | - | - | 0 W/m² | - |
| 1777485804 | 25.56° C | 42% | 1008 hPa | - | - | 0 W/m² | - |
| 1777484946 | 26.11° C | 42% | 1009 hPa | - | - | 0 W/m² | - |
| 1777484310 | 26.67° C | 41% | 1009 hPa | - | - | 0 W/m² | - |
| 1777483093 | 28.33° C | 39% | 1009 hPa | - | - | 0 W/m² | - |
| 1777482448 | 28.89° C | 39% | 1009 hPa | - | - | 0 W/m² | - |
| 1777479741 | 31.11° C | 37% | 1009 hPa | - | - | 0 W/m² | - |
| 1777479325 | 31.11° C | 38% | 1009 hPa | - | - | 0 W/m² | - |
| 1777478712 | 31.11° C | 40% | 1009 hPa | - | - | 0 W/m² | - |
| 1777478001 | 32.78° C | 40% | 1009 hPa | - | - | 0 W/m² | - |
| 1777477681 | 34.44° C | 40% | 1009 hPa | - | - | 0 W/m² | - |
| 1777476481 | 41.11° C | 44% | 1008 hPa | - | - | 0 W/m² | - |
* Rain since midnight (hover to see other rain measurements)
** Current wind speed in m/s (hover to see current wind gust speed)